Time;durP1;ratioP1;P1;durP2;ratioP2;P2;SDS_P1;SDS_P2;PMS_P1;PMS_P2;Temp;Humidity;BMP_temperature;BMP_pressure;BME280_temperature;BME280_humidity;BME280_pressure;Samples;Min_cycle;Max_cycle;Signal;HPM_P1;HPM_P2
2021/10/21 00:00:34;;;;;;;13.53;2.50;;;;;;;;;;5025216;28;20426;-80
2021/10/21 00:03:01;;;;;;;8.80;2.75;;;;;;;;;;5031129;28;20491;-79
2021/10/21 00:05:27;;;;;;;6.90;2.13;;;;;;;;;;5026671;28;20648;-79
2021/10/21 00:07:53;;;;;;;8.77;1.90;;;;;;;;;;5020717;28;20182;-81
2021/10/21 00:10:19;;;;;;;10.77;2.13;;;;;;;;;;5020969;28;20684;-79
2021/10/21 00:12:45;;;;;;;6.82;1.75;;;;;;;;;;5024621;28;20448;-79
2021/10/21 00:15:12;;;;;;;6.63;1.90;;;;;;;;;;5021936;28;20213;-78
2021/10/21 00:17:38;;;;;;;12.85;2.65;;;;;;;;;;5021761;28;20454;-78
2021/10/21 00:20:09;;;;;;;9.60;1.88;;;;;;;;;;5022581;28;20171;-77
2021/10/21 00:22:35;;;;;;;6.75;1.80;;;;;;;;;;5027573;28;20174;-83
2021/10/21 00:25:01;;;;;;;7.68;2.40;;;;;;;;;;5024665;28;20185;-79
2021/10/21 00:27:27;;;;;;;5.82;2.40;;;;;;;;;;5024845;28;20215;-81
2021/10/21 00:29:53;;;;;;;7.97;1.93;;;;;;;;;;5029986;28;20186;-79
2021/10/21 00:32:19;;;;;;;8.87;1.70;;;;;;;;;;5021547;28;20429;-79
2021/10/21 00:34:45;;;;;;;11.93;2.70;;;;;;;;;;5024872;28;20978;-79
2021/10/21 00:37:11;;;;;;;6.95;1.70;;;;;;;;;;5024405;28;20468;-79
2021/10/21 00:39:37;;;;;;;11.00;2.20;;;;;;;;;;5025789;28;20179;-76
2021/10/21 00:42:04;;;;;;;6.17;1.37;;;;;;;;;;5020100;28;20468;-78
2021/10/21 00:44:30;;;;;;;10.52;2.22;;;;;;;;;;5021323;28;20535;-80
2021/10/21 00:46:57;;;;;;;6.05;1.48;;;;;;;;;;5020548;28;20191;-80
2021/10/21 00:49:23;;;;;;;4.95;1.70;;;;;;;;;;5019369;28;20183;-78
2021/10/21 00:51:49;;;;;;;2.38;1.10;;;;;;;;;;5022802;28;20185;-79
2021/10/21 00:54:16;;;;;;;6.10;1.25;;;;;;;;;;5025649;28;20645;-81
2021/10/21 00:56:42;;;;;;;5.85;1.48;;;;;;;;;;5020395;28;20644;-79
2021/10/21 00:59:09;;;;;;;5.83;1.83;;;;;;;;;;5021096;28;20237;-78
2021/10/21 01:01:36;;;;;;;3.83;0.90;;;;;;;;;;5026913;28;20798;-78
2021/10/21 01:04:03;;;;;;;4.32;1.50;;;;;;;;;;5022902;28;20175;-82
2021/10/21 01:06:29;;;;;;;8.27;1.30;;;;;;;;;;5020691;28;20690;-78
2021/10/21 01:08:56;;;;;;;5.25;0.95;;;;;;;;;;5024121;28;20180;-76
2021/10/21 01:11:22;;;;;;;2.95;1.10;;;;;;;;;;5025323;28;20655;-82
2021/10/21 01:13:48;;;;;;;5.28;0.98;;;;;;;;;;5023562;28;20197;-79
2021/10/21 01:16:15;;;;;;;2.45;0.90;;;;;;;;;;5020614;28;20669;-80
2021/10/21 01:18:42;;;;;;;6.97;1.10;;;;;;;;;;5024088;28;20204;-82
2021/10/21 01:21:09;;;;;;;3.88;1.42;;;;;;;;;;5018857;28;20240;-76
2021/10/21 01:23:36;;;;;;;4.93;0.85;;;;;;;;;;5021234;28;20201;-78
2021/10/21 01:26:02;;;;;;;2.55;1.13;;;;;;;;;;5023155;28;20186;-80
2021/10/21 01:28:28;;;;;;;4.38;1.10;;;;;;;;;;5024718;28;20213;-82
2021/10/21 01:30:54;;;;;;;6.00;0.70;;;;;;;;;;5023543;28;20194;-83
2021/10/21 01:33:20;;;;;;;2.08;0.70;;;;;;;;;;5021239;28;20211;-80
2021/10/21 01:35:46;;;;;;;2.33;0.80;;;;;;;;;;5018985;28;20190;-80
2021/10/21 01:38:12;;;;;;;3.35;0.85;;;;;;;;;;5020769;28;20213;-79
2021/10/21 01:40:38;;;;;;;7.80;1.05;;;;;;;;;;5012655;28;20176;-80
2021/10/21 01:43:04;;;;;;;6.38;0.90;;;;;;;;;;5013125;28;20183;-79
2021/10/21 01:45:32;;;;;;;5.00;1.20;;;;;;;;;;5021886;28;20233;-77
2021/10/21 01:47:58;;;;;;;3.97;1.02;;;;;;;;;;5019177;28;20180;-80
2021/10/21 01:50:25;;;;;;;3.33;0.98;;;;;;;;;;5017626;28;20183;-79
2021/10/21 01:52:51;;;;;;;3.08;0.90;;;;;;;;;;5017743;28;20275;-80
2021/10/21 01:55:18;;;;;;;1.33;0.90;;;;;;;;;;5022430;28;20641;-82
2021/10/21 01:57:45;;;;;;;5.95;1.10;;;;;;;;;;5022265;28;20223;-79
2021/10/21 02:00:12;;;;;;;2.75;0.93;;;;;;;;;;5020412;28;20187;-82
2021/10/21 02:02:39;;;;;;;2.38;1.05;;;;;;;;;;5024787;28;20178;-81
2021/10/21 02:05:05;;;;;;;3.90;0.80;;;;;;;;;;5023671;28;20258;-79
2021/10/21 02:07:31;;;;;;;2.60;0.80;;;;;;;;;;5019278;28;20439;-80
2021/10/21 02:09:57;;;;;;;2.20;0.80;;;;;;;;;;5022906;28;20405;-81
2021/10/21 02:12:23;;;;;;;4.35;1.48;;;;;;;;;;5022533;28;20199;-81
2021/10/21 02:14:49;;;;;;;2.78;0.85;;;;;;;;;;5022060;28;20178;-79
2021/10/21 02:17:15;;;;;;;4.43;1.30;;;;;;;;;;5019038;28;20286;-78
2021/10/21 02:19:41;;;;;;;2.13;0.70;;;;;;;;;;5024058;28;20225;-79
2021/10/21 02:22:07;;;;;;;5.43;0.93;;;;;;;;;;5021602;28;20439;-81
2021/10/21 02:24:33;;;;;;;6.60;1.00;;;;;;;;;;5023896;28;20194;-84
2021/10/21 02:26:59;;;;;;;14.02;1.10;;;;;;;;;;5021791;28;20450;-80
2021/10/21 02:29:25;;;;;;;2.20;0.88;;;;;;;;;;5020166;28;20162;-80
2021/10/21 02:31:51;;;;;;;1.90;0.65;;;;;;;;;;5024001;28;20186;-78
2021/10/21 02:34:17;;;;;;;2.70;1.23;;;;;;;;;;5022516;28;20171;-79
2021/10/21 02:36:43;;;;;;;5.10;0.95;;;;;;;;;;5034899;28;20190;-77
2021/10/21 02:39:09;;;;;;;1.50;0.80;;;;;;;;;;5023290;28;20206;-77
2021/10/21 02:41:35;;;;;;;2.60;0.85;;;;;;;;;;5015622;28;20429;-77
2021/10/21 02:44:01;;;;;;;0.93;0.60;;;;;;;;;;5018832;28;20229;-77
2021/10/21 02:46:28;;;;;;;1.47;0.80;;;;;;;;;;5017998;28;20183;-78
2021/10/21 02:48:54;;;;;;;3.45;0.85;;;;;;;;;;5023483;28;20442;-78
2021/10/21 02:51:20;;;;;;;2.23;0.93;;;;;;;;;;5023402;28;20210;-82
2021/10/21 02:53:48;;;;;;;7.17;0.90;;;;;;;;;;5018621;28;20421;-77
2021/10/21 02:56:14;;;;;;;3.58;0.90;;;;;;;;;;5034053;28;20445;-81
2021/10/21 02:58:40;;;;;;;2.45;1.33;;;;;;;;;;5017384;28;20211;-79
2021/10/21 03:01:06;;;;;;;2.05;0.95;;;;;;;;;;5017619;28;20258;-79
2021/10/21 03:03:32;;;;;;;2.70;0.90;;;;;;;;;;5019087;28;20202;-79
2021/10/21 03:05:58;;;;;;;4.27;1.07;;;;;;;;;;5021247;28;20442;-79
2021/10/21 03:08:24;;;;;;;4.55;1.00;;;;;;;;;;5022496;28;20465;-80
2021/10/21 03:10:50;;;;;;;4.90;1.30;;;;;;;;;;5017762;28;20197;-80
2021/10/21 03:13:16;;;;;;;4.73;1.70;;;;;;;;;;5023365;28;20690;-76
2021/10/21 03:15:42;;;;;;;2.45;1.30;;;;;;;;;;5023434;28;20449;-81
2021/10/21 03:18:08;;;;;;;4.00;1.00;;;;;;;;;;5017624;28;20206;-79
2021/10/21 03:20:35;;;;;;;6.15;1.27;;;;;;;;;;5023296;28;20170;-80
2021/10/21 03:23:01;;;;;;;2.88;1.30;;;;;;;;;;5017905;28;20174;-79
2021/10/21 03:25:27;;;;;;;4.60;1.60;;;;;;;;;;5022024;28;20182;-78
2021/10/21 03:27:53;;;;;;;3.17;1.20;;;;;;;;;;5019709;28;20197;-79
2021/10/21 03:30:19;;;;;;;3.38;1.10;;;;;;;;;;5019414;28;20429;-77
2021/10/21 03:32:45;;;;;;;6.75;1.77;;;;;;;;;;5015679;28;20290;-80
2021/10/21 03:35:12;;;;;;;6.33;1.67;;;;;;;;;;5018386;28;20186;-81
2021/10/21 03:37:38;;;;;;;1.55;1.00;;;;;;;;;;5016870;28;20504;-81
2021/10/21 03:40:05;;;;;;;4.80;1.17;;;;;;;;;;5018661;28;20204;-79
2021/10/21 03:42:31;;;;;;;3.85;1.00;;;;;;;;;;5018941;28;20275;-78
2021/10/21 03:44:57;;;;;;;1.55;0.98;;;;;;;;;;5016529;28;20254;-77
2021/10/21 03:47:24;;;;;;;1.98;0.98;;;;;;;;;;5018416;28;20170;-79
2021/10/21 03:49:53;;;;;;;9.20;1.02;;;;;;;;;;5017088;28;20628;-77
2021/10/21 03:52:20;;;;;;;5.45;1.17;;;;;;;;;;5013093;28;20194;-79
2021/10/21 03:54:46;;;;;;;2.60;0.82;;;;;;;;;;5021514;28;20715;-77
2021/10/21 03:57:12;;;;;;;3.53;1.00;;;;;;;;;;5018164;28;20202;-80
2021/10/21 03:59:38;;;;;;;3.47;1.10;;;;;;;;;;5021717;28;20597;-81
2021/10/21 04:02:04;;;;;;;4.03;1.37;;;;;;;;;;5022097;28;20654;-78
2021/10/21 04:04:30;;;;;;;4.00;1.20;;;;;;;;;;5021355;28;20436;-81
2021/10/21 04:06:56;;;;;;;3.05;1.15;;;;;;;;;;5020381;28;20560;-75
2021/10/21 04:09:22;;;;;;;4.80;1.42;;;;;;;;;;5019982;28;20260;-79
2021/10/21 04:11:48;;;;;;;6.22;1.60;;;;;;;;;;5017233;28;20186;-78
2021/10/21 04:14:14;;;;;;;1.33;1.00;;;;;;;;;;5017768;28;20706;-75
2021/10/21 04:16:40;;;;;;;3.03;1.65;;;;;;;;;;5017078;28;20170;-78
2021/10/21 04:19:06;;;;;;;3.80;0.90;;;;;;;;;;5021408;28;20206;-78
2021/10/21 04:21:32;;;;;;;4.80;1.50;;;;;;;;;;5012575;28;20655;-80
2021/10/21 04:23:58;;;;;;;3.38;1.48;;;;;;;;;;5025932;28;20467;-78
2021/10/21 04:26:24;;;;;;;2.00;1.20;;;;;;;;;;5013656;28;20174;-77
2021/10/21 04:28:50;;;;;;;4.53;1.37;;;;;;;;;;5016391;28;20183;-78
2021/10/21 04:31:17;;;;;;;6.43;1.60;;;;;;;;;;5016358;28;20449;-78
2021/10/21 04:33:43;;;;;;;5.00;1.55;;;;;;;;;;5021630;28;20452;-77
2021/10/21 04:36:09;;;;;;;6.57;2.03;;;;;;;;;;5017690;28;20222;-77
2021/10/21 04:38:35;;;;;;;6.38;1.50;;;;;;;;;;5018170;28;20282;-76
2021/10/21 04:41:01;;;;;;;4.15;1.58;;;;;;;;;;5012971;28;20183;-78
2021/10/21 04:43:27;;;;;;;3.30;1.70;;;;;;;;;;5030131;28;20175;-78
2021/10/21 04:45:53;;;;;;;3.97;2.55;;;;;;;;;;5024514;28;20227;-80
2021/10/21 04:48:19;;;;;;;4.80;1.80;;;;;;;;;;5024522;28;20225;-79
2021/10/21 04:50:45;;;;;;;2.67;1.30;;;;;;;;;;5021109;28;20796;-77
2021/10/21 04:53:11;;;;;;;6.00;1.42;;;;;;;;;;5021718;28;20417;-75
2021/10/21 04:55:37;;;;;;;6.18;2.10;;;;;;;;;;5018227;28;20187;-79
2021/10/21 04:58:04;;;;;;;4.10;1.75;;;;;;;;;;5024841;28;20206;-77
2021/10/21 05:00:30;;;;;;;4.13;1.48;;;;;;;;;;5024582;28;20437;-79
2021/10/21 05:02:56;;;;;;;3.70;1.20;;;;;;;;;;5024519;28;20603;-80
2021/10/21 05:05:22;;;;;;;7.30;1.38;;;;;;;;;;5022673;28;20170;-80
2021/10/21 05:07:48;;;;;;;2.63;1.20;;;;;;;;;;5015809;28;20194;-79
2021/10/21 05:10:15;;;;;;;4.57;1.20;;;;;;;;;;5021252;28;20513;-76
2021/10/21 05:12:41;;;;;;;4.50;1.30;;;;;;;;;;5022750;28;20450;-79
2021/10/21 05:15:07;;;;;;;2.63;1.38;;;;;;;;;;5020099;28;20191;-77
2021/10/21 05:17:33;;;;;;;3.20;1.70;;;;;;;;;;5017510;28;20257;-78
2021/10/21 05:20:00;;;;;;;7.18;1.83;;;;;;;;;;5025095;28;20193;-80
2021/10/21 05:22:26;;;;;;;5.55;2.13;;;;;;;;;;5022631;28;20585;-79
2021/10/21 05:24:52;;;;;;;6.00;1.52;;;;;;;;;;5021953;28;20182;-80
2021/10/21 05:27:18;;;;;;;3.85;1.48;;;;;;;;;;5018880;28;20591;-79
2021/10/21 05:29:44;;;;;;;4.57;1.65;;;;;;;;;;5018973;28;20205;-78
2021/10/21 05:32:10;;;;;;;3.37;1.47;;;;;;;;;;5024787;28;20216;-79
2021/10/21 05:34:38;;;;;;;2.73;1.40;;;;;;;;;;5019761;28;20445;-80
2021/10/21 05:37:04;;;;;;;5.07;2.00;;;;;;;;;;5017560;28;20438;-78
2021/10/21 05:39:30;;;;;;;2.25;1.08;;;;;;;;;;5018890;28;20190;-79
2021/10/21 05:41:57;;;;;;;8.30;2.03;;;;;;;;;;5024905;28;20179;-80
2021/10/21 05:44:23;;;;;;;7.55;1.55;;;;;;;;;;5015768;28;20215;-78
2021/10/21 05:46:49;;;;;;;7.97;1.77;;;;;;;;;;5021155;28;20258;-80
2021/10/21 05:49:19;;;;;;;5.95;2.40;;;;;;;;;;5019732;28;20199;-80
2021/10/21 05:51:45;;;;;;;3.58;1.75;;;;;;;;;;5018381;28;20191;-80
2021/10/21 05:54:11;;;;;;;6.80;1.80;;;;;;;;;;5018268;28;20285;-78
2021/10/21 05:56:37;;;;;;;6.03;1.40;;;;;;;;;;5015698;28;20189;-81
2021/10/21 05:59:03;;;;;;;6.53;2.20;;;;;;;;;;5018503;28;20206;-80
2021/10/21 06:01:30;;;;;;;9.07;1.52;;;;;;;;;;5023617;28;20178;-81
2021/10/21 06:03:56;;;;;;;8.95;2.58;;;;;;;;;;5017759;28;20185;-80
2021/10/21 06:06:22;;;;;;;7.95;2.25;;;;;;;;;;5022329;28;20237;-81
2021/10/21 06:08:48;;;;;;;5.90;1.80;;;;;;;;;;5023647;28;20178;-78
2021/10/21 06:11:14;;;;;;;11.63;1.80;;;;;;;;;;5015252;28;20433;-82
2021/10/21 06:13:41;;;;;;;4.22;2.00;;;;;;;;;;5017848;28;20186;-80
2021/10/21 06:16:07;;;;;;;8.05;2.00;;;;;;;;;;5016610;28;20202;-78
2021/10/21 06:18:34;;;;;;;8.80;1.90;;;;;;;;;;5017724;28;20213;-78
2021/10/21 06:21:01;;;;;;;4.85;2.10;;;;;;;;;;5023454;28;20190;-77
2021/10/21 06:23:28;;;;;;;5.80;1.33;;;;;;;;;;5020358;28;20181;-78
2021/10/21 06:25:54;;;;;;;5.30;1.92;;;;;;;;;;5021258;28;20197;-80
2021/10/21 06:28:20;;;;;;;4.77;1.77;;;;;;;;;;5018613;28;20187;-77
2021/10/21 06:30:47;;;;;;;8.07;1.92;;;;;;;;;;5017364;28;20442;-80
2021/10/21 06:33:13;;;;;;;12.07;2.20;;;;;;;;;;5022564;28;20596;-80
2021/10/21 06:35:41;;;;;;;13.20;3.58;;;;;;;;;;5019367;28;20269;-80
2021/10/21 06:38:07;;;;;;;6.65;2.65;;;;;;;;;;5014634;28;20206;-80
2021/10/21 06:40:34;;;;;;;8.07;1.83;;;;;;;;;;5022173;28;20182;-81
2021/10/21 06:43:00;;;;;;;5.30;1.83;;;;;;;;;;5020120;28;20183;-77
2021/10/21 06:45:26;;;;;;;7.28;2.05;;;;;;;;;;5020022;28;20229;-79
2021/10/21 06:47:52;;;;;;;7.75;2.72;;;;;;;;;;5027581;28;20186;-80
2021/10/21 06:50:19;;;;;;;9.00;2.22;;;;;;;;;;5019486;28;20185;-78
2021/10/21 06:52:45;;;;;;;8.93;2.47;;;;;;;;;;5018235;28;20182;-77
2021/10/21 06:55:13;;;;;;;6.60;1.80;;;;;;;;;;5019285;28;20195;-79
2021/10/21 06:57:46;;;;;;;5.60;2.72;;;;;;;;;;5008190;28;20262;-78
2021/10/21 07:00:12;;;;;;;5.85;2.00;;;;;;;;;;5033864;28;20185;-80
2021/10/21 07:02:38;;;;;;;11.80;2.17;;;;;;;;;;5027718;28;20707;-81
2021/10/21 07:05:05;;;;;;;7.13;1.80;;;;;;;;;;5009838;28;20186;-79
2021/10/21 07:07:31;;;;;;;11.27;2.80;;;;;;;;;;5012719;28;20470;-78
2021/10/21 07:09:59;;;;;;;5.27;1.87;;;;;;;;;;5020302;28;20187;-80
2021/10/21 07:12:25;;;;;;;12.35;2.60;;;;;;;;;;5019835;28;20449;-81
2021/10/21 07:14:51;;;;;;;4.78;2.05;;;;;;;;;;5026618;28;20183;-81
2021/10/21 07:17:18;;;;;;;7.85;2.35;;;;;;;;;;5039113;28;20182;-80
2021/10/21 07:19:46;;;;;;;5.93;2.63;;;;;;;;;;5021042;28;20197;-82
2021/10/21 07:22:12;;;;;;;12.35;2.70;;;;;;;;;;5012594;28;20187;-81
2021/10/21 07:24:39;;;;;;;9.57;1.95;;;;;;;;;;5020725;28;20201;-83
2021/10/21 07:27:05;;;;;;;6.82;2.00;;;;;;;;;;5017657;28;20190;-80
2021/10/21 07:29:31;;;;;;;10.15;2.65;;;;;;;;;;5016202;28;20174;-81
2021/10/21 07:31:57;;;;;;;8.88;2.40;;;;;;;;;;5018032;28;20246;-84
2021/10/21 07:34:23;;;;;;;10.05;2.75;;;;;;;;;;5017381;28;20183;-81
2021/10/21 07:36:49;;;;;;;12.40;3.80;;;;;;;;;;5019244;28;20259;-80
2021/10/21 07:39:15;;;;;;;11.70;2.10;;;;;;;;;;5012563;28;20870;-77
2021/10/21 07:41:42;;;;;;;9.38;1.80;;;;;;;;;;5034028;28;20190;-79
2021/10/21 07:44:09;;;;;;;8.60;3.22;;;;;;;;;;5019222;28;20206;-80
2021/10/21 07:46:35;;;;;;;10.38;2.25;;;;;;;;;;5014542;28;20855;-81
2021/10/21 07:49:01;;;;;;;8.93;2.13;;;;;;;;;;5020164;28;20379;-81
2021/10/21 07:51:31;;;;;;;10.77;2.65;;;;;;;;;;5015840;28;20429;-81
2021/10/21 07:53:57;;;;;;;6.95;2.40;;;;;;;;;;5016142;28;20183;-80
2021/10/21 07:56:23;;;;;;;8.13;4.35;;;;;;;;;;5019189;28;20220;-81
2021/10/21 07:58:49;;;;;;;5.73;2.70;;;;;;;;;;5014961;28;20213;-81
2021/10/21 08:01:16;;;;;;;9.82;2.58;;;;;;;;;;5017146;28;20433;-81
2021/10/21 08:03:42;;;;;;;5.55;2.33;;;;;;;;;;5012848;28;20659;-81
2021/10/21 08:06:08;;;;;;;10.63;3.20;;;;;;;;;;5031468;28;20182;-81
2021/10/21 08:08:34;;;;;;;14.88;3.30;;;;;;;;;;5016940;28;20413;-82
2021/10/21 08:11:00;;;;;;;10.83;2.57;;;;;;;;;;5017778;28;20258;-82
2021/10/21 08:13:26;;;;;;;6.07;2.60;;;;;;;;;;5016485;28;20685;-82
2021/10/21 08:15:52;;;;;;;9.87;3.27;;;;;;;;;;5016038;28;20195;-79
2021/10/21 08:18:18;;;;;;;9.63;2.22;;;;;;;;;;5017663;28;20515;-79
2021/10/21 08:20:44;;;;;;;8.82;3.10;;;;;;;;;;5023798;28;20205;-80
2021/10/21 08:23:11;;;;;;;8.35;2.88;;;;;;;;;;5019989;28;20612;-82
2021/10/21 08:25:37;;;;;;;9.23;2.60;;;;;;;;;;5019676;28;20178;-79
2021/10/21 08:28:03;;;;;;;7.65;2.75;;;;;;;;;;5016297;28;20183;-78
2021/10/21 08:30:32;;;;;;;11.10;3.30;;;;;;;;;;5025113;28;20190;-81
2021/10/21 08:32:58;;;;;;;9.00;2.15;;;;;;;;;;5025276;28;20195;-81
2021/10/21 08:35:25;;;;;;;14.07;3.40;;;;;;;;;;5012321;28;20293;-79
2021/10/21 08:37:51;;;;;;;11.23;3.10;;;;;;;;;;5020624;28;20207;-79
2021/10/21 08:40:17;;;;;;;9.88;2.40;;;;;;;;;;5021601;28;20186;-79
2021/10/21 08:42:44;;;;;;;7.90;2.53;;;;;;;;;;5018418;28;20187;-79
2021/10/21 08:45:10;;;;;;;6.88;2.38;;;;;;;;;;5024168;28;20305;-79
2021/10/21 08:47:38;;;;;;;9.60;2.50;;;;;;;;;;5035029;28;20511;-81
2021/10/21 08:50:06;;;;;;;4.70;2.20;;;;;;;;;;5019695;28;20191;-81
2021/10/21 08:52:32;;;;;;;10.05;2.10;;;;;;;;;;5021627;28;20615;-78
2021/10/21 08:54:59;;;;;;;5.30;2.67;;;;;;;;;;5013955;28;20272;-79
2021/10/21 08:57:26;;;;;;;7.93;2.28;;;;;;;;;;5017899;28;20213;-81
2021/10/21 08:59:54;;;;;;;4.65;2.30;;;;;;;;;;5018336;28;20167;-79
2021/10/21 09:02:24;;;;;;;6.35;2.10;;;;;;;;;;5023826;28;20180;-82
2021/10/21 09:05:05;;;;;;;16.02;2.67;;;;;;;;;;5019638;28;20284;-78
2021/10/21 09:10:16;;;;;;;6.20;2.25;;;;;;;;;;5019680;28;20193;-79
2021/10/21 09:12:49;;;;;;;6.47;2.08;;;;;;;;;;5024299;28;20194;-81
2021/10/21 09:15:19;;;;;;;4.85;1.83;;;;;;;;;;5034425;28;20194;-79
2021/10/21 09:17:46;;;;;;;8.23;2.38;;;;;;;;;;5020624;28;20211;-79
2021/10/21 09:20:30;;;;;;;9.25;2.25;;;;;;;;;;5033706;28;20186;-76
2021/10/21 09:23:01;;;;;;;5.50;2.65;;;;;;;;;;5014620;28;20183;-78
2021/10/21 09:25:29;;;;;;;7.53;1.67;;;;;;;;;;5018968;28;20678;-81
2021/10/21 09:27:58;;;;;;;9.10;2.67;;;;;;;;;;5017318;28;20218;-80
2021/10/21 09:30:25;;;;;;;8.32;2.13;;;;;;;;;;5021514;28;20550;-79
2021/10/21 09:32:51;;;;;;;6.40;2.00;;;;;;;;;;5017239;28;20190;-81
2021/10/21 09:35:19;;;;;;;5.38;1.58;;;;;;;;;;5039203;28;20189;-82
2021/10/21 09:37:46;;;;;;;10.43;2.55;;;;;;;;;;5018470;28;20234;-80
2021/10/21 09:40:14;;;;;;;7.57;1.70;;;;;;;;;;5017628;28;20625;-80
2021/10/21 09:42:41;;;;;;;3.58;1.67;;;;;;;;;;5018558;28;20220;-79
2021/10/21 09:45:11;;;;;;;11.85;1.73;;;;;;;;;;5023953;28;20741;-82
2021/10/21 09:47:38;;;;;;;7.28;2.10;;;;;;;;;;5023591;28;20190;-81
2021/10/21 09:50:15;;;;;;;10.80;2.47;;;;;;;;;;5022149;28;20176;-83
2021/10/21 09:52:41;;;;;;;8.50;1.95;;;;;;;;;;5018863;28;20222;-78
2021/10/21 09:55:10;;;;;;;6.32;1.95;;;;;;;;;;5019714;28;20207;-81
2021/10/21 09:57:36;;;;;;;6.07;1.63;;;;;;;;;;5023111;28;20211;-82
2021/10/21 10:00:07;;;;;;;5.13;2.03;;;;;;;;;;5022231;28;20206;-82
2021/10/21 10:02:34;;;;;;;6.45;1.60;;;;;;;;;;5023354;28;20168;-83
2021/10/21 10:05:03;;;;;;;4.88;1.42;;;;;;;;;;5018052;28;20194;-82
2021/10/21 10:07:30;;;;;;;7.60;2.03;;;;;;;;;;5019416;28;20188;-79
2021/10/21 10:09:59;;;;;;;9.32;2.15;;;;;;;;;;5018812;28;20196;-81
2021/10/21 10:12:27;;;;;;;10.35;2.35;;;;;;;;;;5008834;28;20181;-78
2021/10/21 10:14:54;;;;;;;7.82;1.63;;;;;;;;;;5008753;28;20230;-80
2021/10/21 10:17:21;;;;;;;10.88;2.20;;;;;;;;;;5021074;28;20176;-82
2021/10/21 10:19:48;;;;;;;10.10;2.28;;;;;;;;;;5020893;28;20201;-80
2021/10/21 10:22:18;;;;;;;3.55;1.60;;;;;;;;;;5017646;28;20204;-82
2021/10/21 10:24:44;;;;;;;3.65;1.30;;;;;;;;;;5023222;28;20186;-84
2021/10/21 10:27:32;;;;;;;7.35;2.10;;;;;;;;;;5030480;28;20182;-81
2021/10/21 10:29:59;;;;;;;10.85;2.67;;;;;;;;;;5037401;28;20199;-84
2021/10/21 10:32:30;;;;;;;6.18;1.85;;;;;;;;;;5020330;28;20170;-80
2021/10/21 10:34:56;;;;;;;6.93;1.75;;;;;;;;;;5020639;28;20189;-83
2021/10/21 10:37:22;;;;;;;9.80;1.80;;;;;;;;;;5019396;28;20184;-80
2021/10/21 10:39:56;;;;;;;7.45;1.88;;;;;;;;;;5019637;28;20425;-82
2021/10/21 10:42:39;;;;;;;3.35;1.67;;;;;;;;;;5006899;28;20214;-81
2021/10/21 10:45:07;;;;;;;14.95;2.20;;;;;;;;;;5006621;28;20219;-85
2021/10/21 10:47:49;;;;;;;4.85;1.77;;;;;;;;;;5025477;28;20184;-81
2021/10/21 10:50:28;;;;;;;10.15;2.42;;;;;;;;;;5020764;28;20284;-82
2021/10/21 10:52:56;;;;;;;5.82;1.77;;;;;;;;;;5015515;28;20190;-82
2021/10/21 10:55:24;;;;;;;7.28;1.63;;;;;;;;;;5016217;28;20278;-86
2021/10/21 10:57:52;;;;;;;7.63;2.38;;;;;;;;;;5017105;28;20618;-81
2021/10/21 11:00:37;;;;;;;5.65;2.25;;;;;;;;;;5021724;28;20201;-82
2021/10/21 11:03:03;;;;;;;9.30;2.53;;;;;;;;;;5020166;28;20177;-87
2021/10/21 11:05:48;;;;;;;7.82;2.38;;;;;;;;;;5019035;28;20176;-86
2021/10/21 11:08:14;;;;;;;5.95;2.20;;;;;;;;;;5014864;28;20179;-83
2021/10/21 11:10:58;;;;;;;7.38;3.00;;;;;;;;;;5017487;28;20204;-85
2021/10/21 11:13:24;;;;;;;11.70;3.22;;;;;;;;;;5013311;28;20192;-84
2021/10/21 11:15:52;;;;;;;10.77;3.43;;;;;;;;;;5019122;28;20741;-85
2021/10/21 11:18:43;;;;;;;8.90;3.00;;;;;;;;;;5020546;28;20486;-83
2021/10/21 11:21:29;;;;;;;8.90;3.47;;;;;;;;;;5020488;28;20179;-81
2021/10/21 11:23:55;;;;;;;10.13;2.90;;;;;;;;;;5007309;28;20580;-81
2021/10/21 11:26:24;;;;;;;9.07;2.70;;;;;;;;;;5018822;28;20201;-81
2021/10/21 11:28:53;;;;;;;12.05;3.10;;;;;;;;;;5016309;28;20453;-80
2021/10/21 11:31:19;;;;;;;10.65;2.92;;;;;;;;;;5017083;28;20179;-81
2021/10/21 11:33:49;;;;;;;7.20;2.28;;;;;;;;;;5030135;28;20193;-81
2021/10/21 11:36:15;;;;;;;14.88;2.35;;;;;;;;;;5021680;28;20189;-81
2021/10/21 11:38:41;;;;;;;9.55;2.25;;;;;;;;;;5016673;28;20299;-85
2021/10/21 11:41:07;;;;;;;10.50;2.20;;;;;;;;;;5005577;28;20184;-80
2021/10/21 11:43:38;;;;;;;12.60;2.17;;;;;;;;;;5022955;28;20217;-80
2021/10/21 11:46:05;;;;;;;11.20;2.00;;;;;;;;;;5021306;28;20276;-82
2021/10/21 11:48:33;;;;;;;8.43;2.45;;;;;;;;;;5022954;28;20194;-82
2021/10/21 11:51:03;;;;;;;7.40;2.22;;;;;;;;;;5011589;28;20210;-83
2021/10/21 11:53:30;;;;;;;17.55;2.53;;;;;;;;;;5005984;28;20189;-81
2021/10/21 11:55:56;;;;;;;11.30;2.10;;;;;;;;;;5018895;28;20183;-85
2021/10/21 11:58:26;;;;;;;11.48;2.72;;;;;;;;;;5019740;28;20207;-83
2021/10/21 12:00:53;;;;;;;7.43;2.38;;;;;;;;;;5018130;28;20274;-83
2021/10/21 12:03:28;;;;;;;10.23;3.55;;;;;;;;;;5010870;28;20210;-82
2021/10/21 12:05:55;;;;;;;10.75;3.00;;;;;;;;;;5020046;28;20174;-83
2021/10/21 12:08:22;;;;;;;9.38;2.35;;;;;;;;;;5018372;28;20173;-83
2021/10/21 12:10:49;;;;;;;15.65;3.22;;;;;;;;;;5016219;28;20235;-84
2021/10/21 12:13:26;;;;;;;17.73;2.83;;;;;;;;;;5020738;28;20185;-83
2021/10/21 12:15:53;;;;;;;21.35;2.65;;;;;;;;;;5016473;28;20195;-83
2021/10/21 12:18:20;;;;;;;25.40;4.05;;;;;;;;;;5021405;28;20225;-84
2021/10/21 12:20:53;;;;;;;46.25;6.20;;;;;;;;;;5007345;28;20190;-84
2021/10/21 12:23:22;;;;;;;10.88;2.72;;;;;;;;;;5009433;28;20175;-89
2021/10/21 12:25:49;;;;;;;14.30;2.58;;;;;;;;;;5015477;28;20699;-88
2021/10/21 12:28:15;;;;;;;26.05;5.75;;;;;;;;;;5017338;28;20179;-86
2021/10/21 12:30:41;;;;;;;31.85;10.38;;;;;;;;;;5017086;28;20187;-87
2021/10/21 12:33:11;;;;;;;22.77;10.15;;;;;;;;;;5016290;28;20241;-89
2021/10/21 12:35:52;;;;;;;15.32;3.25;;;;;;;;;;5018937;28;20269;-87
2021/10/21 12:38:19;;;;;;;12.77;4.00;;;;;;;;;;5024130;28;20211;-86
2021/10/21 12:40:45;;;;;;;21.55;3.22;;;;;;;;;;5013500;28;20206;-88
2021/10/21 12:43:11;;;;;;;15.93;3.15;;;;;;;;;;5020623;28;20190;-87
2021/10/21 12:45:37;;;;;;;13.27;2.70;;;;;;;;;;5018870;28;20234;-86
2021/10/21 12:48:19;;;;;;;14.20;2.50;;;;;;;;;;5036768;28;20183;-86
2021/10/21 12:50:45;;;;;;;10.25;2.92;;;;;;;;;;5018885;28;20185;-86
2021/10/21 12:53:11;;;;;;;25.13;7.40;;;;;;;;;;5033188;28;20210;-87
2021/10/21 12:55:38;;;;;;;24.75;5.50;;;;;;;;;;5014494;28;20238;-87
2021/10/21 12:58:09;;;;;;;16.08;4.30;;;;;;;;;;5015729;28;20204;-86
2021/10/21 13:00:35;;;;;;;21.15;3.42;;;;;;;;;;5006957;28;20194;-87
2021/10/21 13:03:27;;;;;;;29.88;4.00;;;;;;;;;;5038183;28;20656;-82
2021/10/21 13:05:55;;;;;;;0.40;0.30;;;;;;;;;;5037896;28;20202;-89
2021/10/21 13:08:21;;;;;;;0.40;0.30;;;;;;;;;;5025929;28;20182;-90
2021/10/21 13:10:55;;;;;;;2.45;2.35;;;;;;;;;;5019593;28;20306;-86
2021/10/21 13:13:26;;;;;;;0.40;0.40;;;;;;;;;;5024906;28;20715;-85
2021/10/21 13:15:52;;;;;;;0.40;0.40;;;;;;;;;;5023201;28;20183;-86
2021/10/21 13:18:19;;;;;;;0.40;0.30;;;;;;;;;;5025116;28;20198;-90
2021/10/21 13:20:46;;;;;;;0.40;0.32;;;;;;;;;;5010991;28;20199;-87
2021/10/21 13:23:12;;;;;;;0.40;0.30;;;;;;;;;;5023666;28;20182;-89
2021/10/21 13:25:38;;;;;;;0.40;0.40;;;;;;;;;;5022258;28;20187;-89
2021/10/21 13:28:04;;;;;;;0.40;0.30;;;;;;;;;;5026366;28;20222;-85
2021/10/21 13:30:31;;;;;;;0.40;0.35;;;;;;;;;;5025654;28;20536;-86
2021/10/21 13:32:57;;;;;;;0.40;0.30;;;;;;;;;;5009418;28;20179;-93
2021/10/21 13:35:23;;;;;;;0.40;0.30;;;;;;;;;;5021446;28;20174;-88
2021/10/21 13:37:49;;;;;;;0.40;0.30;;;;;;;;;;5019687;28;20202;-91
2021/10/21 13:40:15;;;;;;;0.40;0.40;;;;;;;;;;5019097;28;20179;-90
2021/10/21 13:42:44;;;;;;;0.40;0.30;;;;;;;;;;5021528;28;20183;-88
2021/10/21 13:45:10;;;;;;;0.40;0.30;;;;;;;;;;5009178;28;20206;-91
2021/10/21 13:47:37;;;;;;;0.40;0.35;;;;;;;;;;5018907;28;20183;-91
2021/10/21 13:50:03;;;;;;;0.40;0.40;;;;;;;;;;5019621;28;20206;-91
2021/10/21 13:52:29;;;;;;;0.40;0.30;;;;;;;;;;5025119;28;20191;-88
2021/10/21 13:54:55;;;;;;;1.80;1.70;;;;;;;;;;5023042;28;20182;-89
2021/10/21 13:57:23;;;;;;;0.40;0.30;;;;;;;;;;5023960;28;20444;-88
2021/10/21 13:59:53;;;;;;;0.40;0.30;;;;;;;;;;5021008;28;20410;-88
2021/10/21 14:02:19;;;;;;;0.40;0.40;;;;;;;;;;5013826;28;20171;-86
2021/10/21 14:04:50;;;;;;;0.40;0.40;;;;;;;;;;5013337;28;20215;-86
2021/10/21 14:07:34;;;;;;;0.40;0.40;;;;;;;;;;5021118;28;20210;-92
2021/10/21 14:10:00;;;;;;;0.40;0.30;;;;;;;;;;5018433;28;20251;-87
2021/10/21 14:12:29;;;;;;;0.40;0.40;;;;;;;;;;5020869;28;20188;-85
2021/10/21 14:14:55;;;;;;;0.40;0.40;;;;;;;;;;5027198;28;20550;-84
2021/10/21 14:17:21;;;;;;;0.47;0.45;;;;;;;;;;5018634;28;20170;-79
2021/10/21 14:19:48;;;;;;;2.28;1.25;;;;;;;;;;5016186;28;20174;-80
2021/10/21 14:22:14;;;;;;;3.25;1.45;;;;;;;;;;5016632;28;20700;-80
2021/10/21 14:24:40;;;;;;;4.25;1.55;;;;;;;;;;5018127;28;20179;-82
2021/10/21 14:27:11;;;;;;;2.45;1.25;;;;;;;;;;5022486;28;20186;-82
2021/10/21 14:29:39;;;;;;;2.20;1.75;;;;;;;;;;5021387;28;20186;-82
2021/10/21 14:32:05;;;;;;;3.25;1.52;;;;;;;;;;5023489;28;20189;-82
2021/10/21 14:34:31;;;;;;;3.03;1.20;;;;;;;;;;5017468;28;20249;-81
2021/10/21 14:36:57;;;;;;;2.10;1.43;;;;;;;;;;5021804;28;20221;-81
2021/10/21 14:39:23;;;;;;;1.83;1.47;;;;;;;;;;5019943;28;20476;-82
2021/10/21 14:41:49;;;;;;;2.50;1.17;;;;;;;;;;5021014;28;20440;-81
2021/10/21 14:44:15;;;;;;;2.57;1.27;;;;;;;;;;5018771;28;20499;-81